sensor_id;sensor_type;location;lat;lon;timestamp;P1;durP1;ratioP1;P2;durP2;ratioP2
85022;SDS011;75348;43.126;-2.538;2024-03-22T00:02:06;55.13;;;20.75;;
85022;SDS011;75348;43.126;-2.538;2024-03-22T00:04:34;57.38;;;25.10;;
85022;SDS011;75348;43.126;-2.538;2024-03-22T00:07:00;55.85;;;24.10;;
85022;SDS011;75348;43.126;-2.538;2024-03-22T00:09:26;58.95;;;25.42;;
85022;SDS011;75348;43.126;-2.538;2024-03-22T00:11:52;64.75;;;24.52;;
85022;SDS011;75348;43.126;-2.538;2024-03-22T00:14:18;66.25;;;26.20;;
85022;SDS011;75348;43.126;-2.538;2024-03-22T00:16:44;73.20;;;28.13;;
85022;SDS011;75348;43.126;-2.538;2024-03-22T00:19:10;75.97;;;27.00;;
85022;SDS011;75348;43.126;-2.538;2024-03-22T00:21:35;70.47;;;29.15;;
85022;SDS011;75348;43.126;-2.538;2024-03-22T00:24:01;76.63;;;29.55;;
85022;SDS011;75348;43.126;-2.538;2024-03-22T00:26:27;97.10;;;32.15;;
85022;SDS011;75348;43.126;-2.538;2024-03-22T00:28:53;83.78;;;30.85;;
85022;SDS011;75348;43.126;-2.538;2024-03-22T00:31:19;80.97;;;28.05;;
85022;SDS011;75348;43.126;-2.538;2024-03-22T00:33:45;81.20;;;29.00;;
85022;SDS011;75348;43.126;-2.538;2024-03-22T00:36:11;74.28;;;30.05;;
85022;SDS011;75348;43.126;-2.538;2024-03-22T00:38:37;120.63;;;50.58;;
85022;SDS011;75348;43.126;-2.538;2024-03-22T00:41:03;80.50;;;28.10;;
85022;SDS011;75348;43.126;-2.538;2024-03-22T00:43:29;78.68;;;30.60;;
85022;SDS011;75348;43.126;-2.538;2024-03-22T00:45:55;79.57;;;29.33;;
85022;SDS011;75348;43.126;-2.538;2024-03-22T00:48:21;130.95;;;47.53;;
85022;SDS011;75348;43.126;-2.538;2024-03-22T00:50:47;91.53;;;32.67;;
85022;SDS011;75348;43.126;-2.538;2024-03-22T00:53:14;109.38;;;30.30;;
85022;SDS011;75348;43.126;-2.538;2024-03-22T00:55:41;93.60;;;28.17;;
85022;SDS011;75348;43.126;-2.538;2024-03-22T00:58:07;82.80;;;27.27;;
85022;SDS011;75348;43.126;-2.538;2024-03-22T01:00:34;71.22;;;26.33;;
85022;SDS011;75348;43.126;-2.538;2024-03-22T01:03:03;98.03;;;29.65;;
85022;SDS011;75348;43.126;-2.538;2024-03-22T01:05:29;85.65;;;30.02;;
85022;SDS011;75348;43.126;-2.538;2024-03-22T01:07:55;118.00;;;31.52;;
85022;SDS011;75348;43.126;-2.538;2024-03-22T01:10:21;100.00;;;29.73;;
85022;SDS011;75348;43.126;-2.538;2024-03-22T01:12:47;66.50;;;27.08;;
85022;SDS011;75348;43.126;-2.538;2024-03-22T01:15:13;69.53;;;26.85;;
85022;SDS011;75348;43.126;-2.538;2024-03-22T01:17:39;81.07;;;24.63;;
85022;SDS011;75348;43.126;-2.538;2024-03-22T01:20:05;80.22;;;26.20;;
85022;SDS011;75348;43.126;-2.538;2024-03-22T01:22:31;91.47;;;25.27;;
85022;SDS011;75348;43.126;-2.538;2024-03-22T01:24:57;78.55;;;24.73;;
85022;SDS011;75348;43.126;-2.538;2024-03-22T01:27:23;74.53;;;26.88;;
85022;SDS011;75348;43.126;-2.538;2024-03-22T01:29:49;69.72;;;26.17;;
85022;SDS011;75348;43.126;-2.538;2024-03-22T01:32:15;74.65;;;26.88;;
85022;SDS011;75348;43.126;-2.538;2024-03-22T01:34:41;72.57;;;25.77;;
85022;SDS011;75348;43.126;-2.538;2024-03-22T01:37:07;93.10;;;27.90;;
85022;SDS011;75348;43.126;-2.538;2024-03-22T01:39:33;75.57;;;25.25;;
85022;SDS011;75348;43.126;-2.538;2024-03-22T01:41:59;94.55;;;26.27;;
85022;SDS011;75348;43.126;-2.538;2024-03-22T01:44:28;66.53;;;26.55;;
85022;SDS011;75348;43.126;-2.538;2024-03-22T01:46:56;90.82;;;25.80;;
85022;SDS011;75348;43.126;-2.538;2024-03-22T01:49:22;75.47;;;25.75;;
85022;SDS011;75348;43.126;-2.538;2024-03-22T01:51:50;74.65;;;24.63;;
85022;SDS011;75348;43.126;-2.538;2024-03-22T01:54:17;63.15;;;22.17;;
85022;SDS011;75348;43.126;-2.538;2024-03-22T01:56:44;55.83;;;21.17;;
85022;SDS011;75348;43.126;-2.538;2024-03-22T01:59:11;65.18;;;24.27;;
85022;SDS011;75348;43.126;-2.538;2024-03-22T02:01:37;77.70;;;24.08;;
85022;SDS011;75348;43.126;-2.538;2024-03-22T02:04:04;63.17;;;21.63;;
85022;SDS011;75348;43.126;-2.538;2024-03-22T02:06:30;61.55;;;21.65;;
85022;SDS011;75348;43.126;-2.538;2024-03-22T02:08:56;63.78;;;21.60;;
85022;SDS011;75348;43.126;-2.538;2024-03-22T02:11:23;61.22;;;23.02;;
85022;SDS011;75348;43.126;-2.538;2024-03-22T02:13:51;80.82;;;24.02;;
85022;SDS011;75348;43.126;-2.538;2024-03-22T02:16:17;88.10;;;24.30;;
85022;SDS011;75348;43.126;-2.538;2024-03-22T02:18:42;61.33;;;20.15;;
85022;SDS011;75348;43.126;-2.538;2024-03-22T02:21:09;85.85;;;23.10;;
85022;SDS011;75348;43.126;-2.538;2024-03-22T02:23:36;73.28;;;23.17;;
85022;SDS011;75348;43.126;-2.538;2024-03-22T02:26:04;56.30;;;22.15;;
85022;SDS011;75348;43.126;-2.538;2024-03-22T02:28:31;66.65;;;24.85;;
85022;SDS011;75348;43.126;-2.538;2024-03-22T02:30:57;86.38;;;24.00;;
85022;SDS011;75348;43.126;-2.538;2024-03-22T02:33:24;46.85;;;19.58;;
85022;SDS011;75348;43.126;-2.538;2024-03-22T02:35:50;58.42;;;20.65;;
85022;SDS011;75348;43.126;-2.538;2024-03-22T02:38:16;61.38;;;21.08;;
85022;SDS011;75348;43.126;-2.538;2024-03-22T02:40:43;59.50;;;21.88;;
85022;SDS011;75348;43.126;-2.538;2024-03-22T02:43:10;68.72;;;23.77;;
85022;SDS011;75348;43.126;-2.538;2024-03-22T02:45:36;66.47;;;22.08;;
85022;SDS011;75348;43.126;-2.538;2024-03-22T02:48:03;62.80;;;21.35;;
85022;SDS011;75348;43.126;-2.538;2024-03-22T02:50:36;56.97;;;22.08;;
85022;SDS011;75348;43.126;-2.538;2024-03-22T02:53:02;64.22;;;22.95;;
85022;SDS011;75348;43.126;-2.538;2024-03-22T02:55:29;46.17;;;20.33;;
85022;SDS011;75348;43.126;-2.538;2024-03-22T02:57:56;50.88;;;21.75;;
85022;SDS011;75348;43.126;-2.538;2024-03-22T03:00:22;56.03;;;21.27;;
85022;SDS011;75348;43.126;-2.538;2024-03-22T03:02:49;55.60;;;20.42;;
85022;SDS011;75348;43.126;-2.538;2024-03-22T03:05:15;67.72;;;21.90;;
85022;SDS011;75348;43.126;-2.538;2024-03-22T03:07:41;52.45;;;19.80;;
85022;SDS011;75348;43.126;-2.538;2024-03-22T03:10:07;52.47;;;20.23;;
85022;SDS011;75348;43.126;-2.538;2024-03-22T03:12:33;53.50;;;21.30;;
85022;SDS011;75348;43.126;-2.538;2024-03-22T03:14:59;70.00;;;21.48;;
85022;SDS011;75348;43.126;-2.538;2024-03-22T03:17:25;86.70;;;23.92;;
85022;SDS011;75348;43.126;-2.538;2024-03-22T03:19:51;65.15;;;22.60;;
85022;SDS011;75348;43.126;-2.538;2024-03-22T03:22:17;72.32;;;23.20;;
85022;SDS011;75348;43.126;-2.538;2024-03-22T03:24:43;61.42;;;21.70;;
85022;SDS011;75348;43.126;-2.538;2024-03-22T03:27:09;74.82;;;21.08;;
85022;SDS011;75348;43.126;-2.538;2024-03-22T03:29:36;70.18;;;21.38;;
85022;SDS011;75348;43.126;-2.538;2024-03-22T03:32:02;76.35;;;21.48;;
85022;SDS011;75348;43.126;-2.538;2024-03-22T03:34:28;65.30;;;21.65;;
85022;SDS011;75348;43.126;-2.538;2024-03-22T03:36:54;78.10;;;21.67;;
85022;SDS011;75348;43.126;-2.538;2024-03-22T03:39:21;75.32;;;22.55;;
85022;SDS011;75348;43.126;-2.538;2024-03-22T03:41:47;60.17;;;22.30;;
85022;SDS011;75348;43.126;-2.538;2024-03-22T03:44:13;84.75;;;20.58;;
85022;SDS011;75348;43.126;-2.538;2024-03-22T03:46:39;67.10;;;22.10;;
85022;SDS011;75348;43.126;-2.538;2024-03-22T03:49:05;69.45;;;19.02;;
85022;SDS011;75348;43.126;-2.538;2024-03-22T03:51:30;49.10;;;17.38;;
85022;SDS011;75348;43.126;-2.538;2024-03-22T03:53:56;44.83;;;19.00;;
85022;SDS011;75348;43.126;-2.538;2024-03-22T03:56:22;51.60;;;18.75;;
85022;SDS011;75348;43.126;-2.538;2024-03-22T03:58:48;57.30;;;20.00;;
85022;SDS011;75348;43.126;-2.538;2024-03-22T04:01:14;55.35;;;20.40;;
85022;SDS011;75348;43.126;-2.538;2024-03-22T04:03:40;58.90;;;19.52;;
85022;SDS011;75348;43.126;-2.538;2024-03-22T04:06:06;58.22;;;19.27;;
85022;SDS011;75348;43.126;-2.538;2024-03-22T04:08:32;44.70;;;19.58;;
85022;SDS011;75348;43.126;-2.538;2024-03-22T04:10:58;48.17;;;18.30;;
85022;SDS011;75348;43.126;-2.538;2024-03-22T04:13:25;44.13;;;16.48;;
85022;SDS011;75348;43.126;-2.538;2024-03-22T04:15:52;54.13;;;18.73;;
85022;SDS011;75348;43.126;-2.538;2024-03-22T04:18:18;59.63;;;18.95;;
85022;SDS011;75348;43.126;-2.538;2024-03-22T04:20:54;46.90;;;16.88;;
85022;SDS011;75348;43.126;-2.538;2024-03-22T04:23:24;57.75;;;18.50;;
85022;SDS011;75348;43.126;-2.538;2024-03-22T04:25:54;48.42;;;17.88;;
85022;SDS011;75348;43.126;-2.538;2024-03-22T04:28:21;51.22;;;17.42;;
85022;SDS011;75348;43.126;-2.538;2024-03-22T04:30:57;58.75;;;18.55;;
85022;SDS011;75348;43.126;-2.538;2024-03-22T04:33:25;61.28;;;19.67;;
85022;SDS011;75348;43.126;-2.538;2024-03-22T04:35:53;66.72;;;21.10;;
85022;SDS011;75348;43.126;-2.538;2024-03-22T04:38:20;77.57;;;21.80;;
85022;SDS011;75348;43.126;-2.538;2024-03-22T04:40:46;95.22;;;24.17;;
85022;SDS011;75348;43.126;-2.538;2024-03-22T04:43:11;89.82;;;24.65;;
85022;SDS011;75348;43.126;-2.538;2024-03-22T04:45:38;91.35;;;23.50;;
85022;SDS011;75348;43.126;-2.538;2024-03-22T04:48:04;136.13;;;26.80;;
85022;SDS011;75348;43.126;-2.538;2024-03-22T04:50:30;71.15;;;23.33;;
85022;SDS011;75348;43.126;-2.538;2024-03-22T04:52:56;112.20;;;24.83;;
85022;SDS011;75348;43.126;-2.538;2024-03-22T04:55:22;93.20;;;24.73;;
85022;SDS011;75348;43.126;-2.538;2024-03-22T04:57:49;99.00;;;24.58;;
85022;SDS011;75348;43.126;-2.538;2024-03-22T05:00:15;115.32;;;27.60;;
85022;SDS011;75348;43.126;-2.538;2024-03-22T05:02:41;127.35;;;25.65;;
85022;SDS011;75348;43.126;-2.538;2024-03-22T05:05:08;107.40;;;25.98;;
85022;SDS011;75348;43.126;-2.538;2024-03-22T05:07:34;100.95;;;25.40;;
85022;SDS011;75348;43.126;-2.538;2024-03-22T05:10:00;165.55;;;30.40;;
85022;SDS011;75348;43.126;-2.538;2024-03-22T05:12:25;107.55;;;26.40;;
85022;SDS011;75348;43.126;-2.538;2024-03-22T05:14:51;137.90;;;27.25;;
85022;SDS011;75348;43.126;-2.538;2024-03-22T05:17:17;68.75;;;24.98;;
85022;SDS011;75348;43.126;-2.538;2024-03-22T05:19:43;73.03;;;25.25;;
85022;SDS011;75348;43.126;-2.538;2024-03-22T05:22:09;90.93;;;24.10;;
85022;SDS011;75348;43.126;-2.538;2024-03-22T05:24:35;78.72;;;24.02;;
85022;SDS011;75348;43.126;-2.538;2024-03-22T05:27:01;73.45;;;20.48;;
85022;SDS011;75348;43.126;-2.538;2024-03-22T05:29:27;58.30;;;20.60;;
85022;SDS011;75348;43.126;-2.538;2024-03-22T05:31:53;61.35;;;19.13;;
85022;SDS011;75348;43.126;-2.538;2024-03-22T05:34:19;71.70;;;21.63;;
85022;SDS011;75348;43.126;-2.538;2024-03-22T05:36:45;74.78;;;22.92;;
85022;SDS011;75348;43.126;-2.538;2024-03-22T05:39:12;64.65;;;22.08;;
85022;SDS011;75348;43.126;-2.538;2024-03-22T05:41:38;99.07;;;24.75;;
85022;SDS011;75348;43.126;-2.538;2024-03-22T05:44:04;123.30;;;27.50;;
85022;SDS011;75348;43.126;-2.538;2024-03-22T05:46:30;89.10;;;25.38;;
85022;SDS011;75348;43.126;-2.538;2024-03-22T05:48:57;98.70;;;23.55;;
85022;SDS011;75348;43.126;-2.538;2024-03-22T05:51:26;52.28;;;19.67;;
85022;SDS011;75348;43.126;-2.538;2024-03-22T05:53:53;58.53;;;22.17;;
85022;SDS011;75348;43.126;-2.538;2024-03-22T05:56:19;47.55;;;17.35;;
85022;SDS011;75348;43.126;-2.538;2024-03-22T05:58:45;65.85;;;18.20;;
85022;SDS011;75348;43.126;-2.538;2024-03-22T06:01:11;49.40;;;16.85;;
85022;SDS011;75348;43.126;-2.538;2024-03-22T06:03:37;41.72;;;17.92;;
85022;SDS011;75348;43.126;-2.538;2024-03-22T06:06:03;42.10;;;18.70;;
85022;SDS011;75348;43.126;-2.538;2024-03-22T06:08:29;43.05;;;16.10;;
85022;SDS011;75348;43.126;-2.538;2024-03-22T06:10:57;43.08;;;15.13;;
85022;SDS011;75348;43.126;-2.538;2024-03-22T06:13:23;33.97;;;18.02;;
85022;SDS011;75348;43.126;-2.538;2024-03-22T06:15:49;31.98;;;16.45;;
85022;SDS011;75348;43.126;-2.538;2024-03-22T06:18:15;42.83;;;17.33;;
85022;SDS011;75348;43.126;-2.538;2024-03-22T06:20:41;86.20;;;17.60;;
85022;SDS011;75348;43.126;-2.538;2024-03-22T06:23:09;50.80;;;23.58;;
85022;SDS011;75348;43.126;-2.538;2024-03-22T06:25:35;47.60;;;21.13;;
85022;SDS011;75348;43.126;-2.538;2024-03-22T06:28:02;47.25;;;18.95;;
85022;SDS011;75348;43.126;-2.538;2024-03-22T06:30:28;34.00;;;16.23;;
85022;SDS011;75348;43.126;-2.538;2024-03-22T06:32:54;41.60;;;15.82;;
85022;SDS011;75348;43.126;-2.538;2024-03-22T06:35:20;73.72;;;17.90;;
85022;SDS011;75348;43.126;-2.538;2024-03-22T06:37:47;34.92;;;16.50;;
85022;SDS011;75348;43.126;-2.538;2024-03-22T06:40:14;39.58;;;17.52;;
85022;SDS011;75348;43.126;-2.538;2024-03-22T06:42:40;36.20;;;17.70;;
85022;SDS011;75348;43.126;-2.538;2024-03-22T06:45:06;62.33;;;19.08;;
85022;SDS011;75348;43.126;-2.538;2024-03-22T06:47:33;51.20;;;19.20;;
85022;SDS011;75348;43.126;-2.538;2024-03-22T06:49:59;47.72;;;17.75;;
85022;SDS011;75348;43.126;-2.538;2024-03-22T06:52:25;82.32;;;18.52;;
85022;SDS011;75348;43.126;-2.538;2024-03-22T06:54:51;57.88;;;19.13;;
85022;SDS011;75348;43.126;-2.538;2024-03-22T06:57:17;94.07;;;18.60;;
85022;SDS011;75348;43.126;-2.538;2024-03-22T06:59:43;61.05;;;23.30;;
85022;SDS011;75348;43.126;-2.538;2024-03-22T07:02:09;69.80;;;26.20;;
85022;SDS011;75348;43.126;-2.538;2024-03-22T07:04:35;53.08;;;19.80;;
85022;SDS011;75348;43.126;-2.538;2024-03-22T07:07:01;57.75;;;21.88;;
85022;SDS011;75348;43.126;-2.538;2024-03-22T07:09:27;62.13;;;24.17;;
85022;SDS011;75348;43.126;-2.538;2024-03-22T07:11:55;58.72;;;23.42;;
85022;SDS011;75348;43.126;-2.538;2024-03-22T07:14:21;56.63;;;22.80;;
85022;SDS011;75348;43.126;-2.538;2024-03-22T07:16:50;61.72;;;25.73;;
85022;SDS011;75348;43.126;-2.538;2024-03-22T07:19:16;69.43;;;27.50;;
85022;SDS011;75348;43.126;-2.538;2024-03-22T07:21:42;70.55;;;24.80;;
85022;SDS011;75348;43.126;-2.538;2024-03-22T07:24:08;64.38;;;25.27;;
85022;SDS011;75348;43.126;-2.538;2024-03-22T07:26:34;55.85;;;22.42;;
85022;SDS011;75348;43.126;-2.538;2024-03-22T07:29:00;64.90;;;22.90;;
85022;SDS011;75348;43.126;-2.538;2024-03-22T07:31:26;64.20;;;21.92;;
85022;SDS011;75348;43.126;-2.538;2024-03-22T07:33:53;47.63;;;21.30;;
85022;SDS011;75348;43.126;-2.538;2024-03-22T07:36:19;44.05;;;19.48;;
85022;SDS011;75348;43.126;-2.538;2024-03-22T07:38:45;36.88;;;19.33;;
85022;SDS011;75348;43.126;-2.538;2024-03-22T07:41:11;46.20;;;21.45;;
85022;SDS011;75348;43.126;-2.538;2024-03-22T07:43:37;34.30;;;17.67;;
85022;SDS011;75348;43.126;-2.538;2024-03-22T07:46:03;35.67;;;17.15;;
85022;SDS011;75348;43.126;-2.538;2024-03-22T07:48:29;27.83;;;16.15;;
85022;SDS011;75348;43.126;-2.538;2024-03-22T07:50:56;25.80;;;14.25;;
85022;SDS011;75348;43.126;-2.538;2024-03-22T07:53:23;25.45;;;13.93;;
85022;SDS011;75348;43.126;-2.538;2024-03-22T07:55:49;21.02;;;13.52;;
85022;SDS011;75348;43.126;-2.538;2024-03-22T07:58:15;20.13;;;12.82;;
85022;SDS011;75348;43.126;-2.538;2024-03-22T08:00:41;22.95;;;14.05;;
85022;SDS011;75348;43.126;-2.538;2024-03-22T08:03:07;21.33;;;13.10;;
85022;SDS011;75348;43.126;-2.538;2024-03-22T08:05:39;24.70;;;13.40;;
85022;SDS011;75348;43.126;-2.538;2024-03-22T08:08:05;23.02;;;13.95;;
85022;SDS011;75348;43.126;-2.538;2024-03-22T08:10:31;29.85;;;16.80;;
85022;SDS011;75348;43.126;-2.538;2024-03-22T08:12:57;31.92;;;17.45;;
85022;SDS011;75348;43.126;-2.538;2024-03-22T08:15:23;30.50;;;18.30;;
85022;SDS011;75348;43.126;-2.538;2024-03-22T08:17:49;34.45;;;19.65;;
85022;SDS011;75348;43.126;-2.538;2024-03-22T08:20:15;33.28;;;16.80;;
85022;SDS011;75348;43.126;-2.538;2024-03-22T08:22:41;26.45;;;15.32;;
85022;SDS011;75348;43.126;-2.538;2024-03-22T08:25:07;28.00;;;16.65;;
85022;SDS011;75348;43.126;-2.538;2024-03-22T08:27:33;30.77;;;16.17;;
85022;SDS011;75348;43.126;-2.538;2024-03-22T08:30:00;26.02;;;16.33;;
85022;SDS011;75348;43.126;-2.538;2024-03-22T08:32:26;23.95;;;15.32;;
85022;SDS011;75348;43.126;-2.538;2024-03-22T08:34:52;24.38;;;16.30;;
85022;SDS011;75348;43.126;-2.538;2024-03-22T08:37:18;28.17;;;17.00;;
85022;SDS011;75348;43.126;-2.538;2024-03-22T08:39:44;36.72;;;19.50;;
85022;SDS011;75348;43.126;-2.538;2024-03-22T08:42:10;32.72;;;18.15;;
85022;SDS011;75348;43.126;-2.538;2024-03-22T08:44:36;32.90;;;18.05;;
85022;SDS011;75348;43.126;-2.538;2024-03-22T08:47:02;43.88;;;22.30;;
85022;SDS011;75348;43.126;-2.538;2024-03-22T08:49:28;37.53;;;22.23;;
85022;SDS011;75348;43.126;-2.538;2024-03-22T08:51:55;37.95;;;20.10;;
85022;SDS011;75348;43.126;-2.538;2024-03-22T08:54:21;37.45;;;20.20;;
85022;SDS011;75348;43.126;-2.538;2024-03-22T08:56:47;33.00;;;19.95;;
85022;SDS011;75348;43.126;-2.538;2024-03-22T08:59:13;40.10;;;22.45;;
85022;SDS011;75348;43.126;-2.538;2024-03-22T09:01:39;37.28;;;21.35;;
85022;SDS011;75348;43.126;-2.538;2024-03-22T09:04:05;44.33;;;22.45;;
85022;SDS011;75348;43.126;-2.538;2024-03-22T09:06:31;41.13;;;23.08;;
85022;SDS011;75348;43.126;-2.538;2024-03-22T09:08:57;37.47;;;21.83;;
85022;SDS011;75348;43.126;-2.538;2024-03-22T09:11:26;35.53;;;20.48;;
85022;SDS011;75348;43.126;-2.538;2024-03-22T09:13:52;32.42;;;18.00;;
85022;SDS011;75348;43.126;-2.538;2024-03-22T09:16:19;30.40;;;16.40;;
85022;SDS011;75348;43.126;-2.538;2024-03-22T09:18:49;29.88;;;15.65;;
85022;SDS011;75348;43.126;-2.538;2024-03-22T09:21:15;35.75;;;16.40;;
85022;SDS011;75348;43.126;-2.538;2024-03-22T09:23:41;32.00;;;18.30;;
85022;SDS011;75348;43.126;-2.538;2024-03-22T09:26:07;38.42;;;18.95;;
85022;SDS011;75348;43.126;-2.538;2024-03-22T09:28:33;29.70;;;16.17;;
85022;SDS011;75348;43.126;-2.538;2024-03-22T09:31:05;35.28;;;17.67;;
85022;SDS011;75348;43.126;-2.538;2024-03-22T09:33:33;31.90;;;16.15;;
85022;SDS011;75348;43.126;-2.538;2024-03-22T09:35:59;38.97;;;17.50;;
85022;SDS011;75348;43.126;-2.538;2024-03-22T09:38:25;35.45;;;17.90;;
85022;SDS011;75348;43.126;-2.538;2024-03-22T09:40:51;35.22;;;18.80;;
85022;SDS011;75348;43.126;-2.538;2024-03-22T09:43:23;35.65;;;18.35;;
85022;SDS011;75348;43.126;-2.538;2024-03-22T09:45:52;35.88;;;18.10;;
85022;SDS011;75348;43.126;-2.538;2024-03-22T09:48:20;38.85;;;18.95;;
85022;SDS011;75348;43.126;-2.538;2024-03-22T09:50:48;29.63;;;15.63;;
85022;SDS011;75348;43.126;-2.538;2024-03-22T09:53:19;36.25;;;16.67;;
85022;SDS011;75348;43.126;-2.538;2024-03-22T09:55:49;40.63;;;14.90;;
85022;SDS011;75348;43.126;-2.538;2024-03-22T09:58:17;29.65;;;14.82;;
85022;SDS011;75348;43.126;-2.538;2024-03-22T10:00:43;38.25;;;14.50;;
85022;SDS011;75348;43.126;-2.538;2024-03-22T10:03:12;29.85;;;13.98;;
85022;SDS011;75348;43.126;-2.538;2024-03-22T10:05:38;27.13;;;12.95;;
85022;SDS011;75348;43.126;-2.538;2024-03-22T10:08:04;27.02;;;13.63;;
85022;SDS011;75348;43.126;-2.538;2024-03-22T10:10:31;27.00;;;12.63;;
85022;SDS011;75348;43.126;-2.538;2024-03-22T10:13:00;28.77;;;14.23;;
85022;SDS011;75348;43.126;-2.538;2024-03-22T10:15:26;31.85;;;15.32;;
85022;SDS011;75348;43.126;-2.538;2024-03-22T10:17:53;35.55;;;17.73;;
85022;SDS011;75348;43.126;-2.538;2024-03-22T10:20:22;38.00;;;15.45;;
85022;SDS011;75348;43.126;-2.538;2024-03-22T10:22:49;28.80;;;14.50;;
85022;SDS011;75348;43.126;-2.538;2024-03-22T10:25:22;29.95;;;14.63;;
85022;SDS011;75348;43.126;-2.538;2024-03-22T10:27:48;30.85;;;13.70;;
85022;SDS011;75348;43.126;-2.538;2024-03-22T10:30:15;28.83;;;12.30;;
85022;SDS011;75348;43.126;-2.538;2024-03-22T10:32:43;20.20;;;12.18;;
85022;SDS011;75348;43.126;-2.538;2024-03-22T10:35:13;22.15;;;12.23;;
85022;SDS011;75348;43.126;-2.538;2024-03-22T10:37:39;23.75;;;10.65;;
85022;SDS011;75348;43.126;-2.538;2024-03-22T10:40:06;20.65;;;10.68;;
85022;SDS011;75348;43.126;-2.538;2024-03-22T10:42:35;20.50;;;10.70;;
85022;SDS011;75348;43.126;-2.538;2024-03-22T10:45:06;20.73;;;10.05;;
85022;SDS011;75348;43.126;-2.538;2024-03-22T10:47:34;23.02;;;10.50;;
85022;SDS011;75348;43.126;-2.538;2024-03-22T10:50:06;18.48;;;10.38;;
85022;SDS011;75348;43.126;-2.538;2024-03-22T10:52:36;20.58;;;10.40;;
85022;SDS011;75348;43.126;-2.538;2024-03-22T10:55:07;31.80;;;14.32;;
85022;SDS011;75348;43.126;-2.538;2024-03-22T10:57:37;29.30;;;13.05;;
85022;SDS011;75348;43.126;-2.538;2024-03-22T11:00:07;29.48;;;12.52;;
85022;SDS011;75348;43.126;-2.538;2024-03-22T11:02:36;25.10;;;12.35;;
85022;SDS011;75348;43.126;-2.538;2024-03-22T11:05:03;25.23;;;12.07;;
85022;SDS011;75348;43.126;-2.538;2024-03-22T11:07:31;30.38;;;13.60;;
85022;SDS011;75348;43.126;-2.538;2024-03-22T11:09:57;24.40;;;12.60;;
85022;SDS011;75348;43.126;-2.538;2024-03-22T11:12:26;20.83;;;10.80;;
85022;SDS011;75348;43.126;-2.538;2024-03-22T11:14:53;26.33;;;13.70;;
85022;SDS011;75348;43.126;-2.538;2024-03-22T11:17:20;34.10;;;16.27;;
85022;SDS011;75348;43.126;-2.538;2024-03-22T11:19:51;21.42;;;10.48;;
85022;SDS011;75348;43.126;-2.538;2024-03-22T11:22:17;26.60;;;12.25;;
85022;SDS011;75348;43.126;-2.538;2024-03-22T11:24:44;26.73;;;12.55;;
85022;SDS011;75348;43.126;-2.538;2024-03-22T11:27:10;27.40;;;15.40;;
85022;SDS011;75348;43.126;-2.538;2024-03-22T11:29:37;29.33;;;14.52;;
85022;SDS011;75348;43.126;-2.538;2024-03-22T11:32:11;29.42;;;14.55;;
85022;SDS011;75348;43.126;-2.538;2024-03-22T11:34:38;23.02;;;12.40;;
85022;SDS011;75348;43.126;-2.538;2024-03-22T11:37:05;23.38;;;11.52;;
85022;SDS011;75348;43.126;-2.538;2024-03-22T11:39:36;22.75;;;13.48;;
85022;SDS011;75348;43.126;-2.538;2024-03-22T11:42:06;36.33;;;17.48;;
85022;SDS011;75348;43.126;-2.538;2024-03-22T11:44:34;22.60;;;12.63;;
85022;SDS011;75348;43.126;-2.538;2024-03-22T11:47:02;27.48;;;12.90;;
85022;SDS011;75348;43.126;-2.538;2024-03-22T11:49:29;23.95;;;14.18;;
85022;SDS011;75348;43.126;-2.538;2024-03-22T11:51:58;27.65;;;15.48;;
85022;SDS011;75348;43.126;-2.538;2024-03-22T11:54:23;33.95;;;18.20;;
85022;SDS011;75348;43.126;-2.538;2024-03-22T11:56:49;30.75;;;17.55;;
85022;SDS011;75348;43.126;-2.538;2024-03-22T11:59:19;24.88;;;14.30;;
85022;SDS011;75348;43.126;-2.538;2024-03-22T12:01:46;29.35;;;13.98;;
85022;SDS011;75348;43.126;-2.538;2024-03-22T12:04:12;34.45;;;17.23;;
85022;SDS011;75348;43.126;-2.538;2024-03-22T12:06:49;20.98;;;13.43;;
85022;SDS011;75348;43.126;-2.538;2024-03-22T12:09:15;24.95;;;12.73;;
85022;SDS011;75348;43.126;-2.538;2024-03-22T12:11:41;25.75;;;15.93;;
85022;SDS011;75348;43.126;-2.538;2024-03-22T12:14:07;32.38;;;15.68;;
85022;SDS011;75348;43.126;-2.538;2024-03-22T12:16:33;38.55;;;17.20;;
85022;SDS011;75348;43.126;-2.538;2024-03-22T12:18:59;24.02;;;11.65;;
85022;SDS011;75348;43.126;-2.538;2024-03-22T12:21:25;29.65;;;14.27;;
85022;SDS011;75348;43.126;-2.538;2024-03-22T12:23:51;20.38;;;12.15;;
85022;SDS011;75348;43.126;-2.538;2024-03-22T12:26:17;30.23;;;15.57;;
85022;SDS011;75348;43.126;-2.538;2024-03-22T12:28:43;17.48;;;11.57;;
85022;SDS011;75348;43.126;-2.538;2024-03-22T12:31:09;27.38;;;15.70;;
85022;SDS011;75348;43.126;-2.538;2024-03-22T12:33:38;21.23;;;11.30;;
85022;SDS011;75348;43.126;-2.538;2024-03-22T12:36:04;21.95;;;12.07;;
85022;SDS011;75348;43.126;-2.538;2024-03-22T12:38:30;21.80;;;12.00;;
85022;SDS011;75348;43.126;-2.538;2024-03-22T12:40:56;33.88;;;15.68;;
85022;SDS011;75348;43.126;-2.538;2024-03-22T12:43:22;41.47;;;15.95;;
85022;SDS011;75348;43.126;-2.538;2024-03-22T12:45:48;32.00;;;15.63;;
85022;SDS011;75348;43.126;-2.538;2024-03-22T12:48:15;20.55;;;11.10;;
85022;SDS011;75348;43.126;-2.538;2024-03-22T12:50:41;30.35;;;15.63;;
85022;SDS011;75348;43.126;-2.538;2024-03-22T12:53:07;31.60;;;15.57;;
85022;SDS011;75348;43.126;-2.538;2024-03-22T12:55:33;23.17;;;13.48;;
85022;SDS011;75348;43.126;-2.538;2024-03-22T12:57:59;23.73;;;12.20;;
85022;SDS011;75348;43.126;-2.538;2024-03-22T13:00:25;18.83;;;11.60;;
85022;SDS011;75348;43.126;-2.538;2024-03-22T13:02:51;21.58;;;12.45;;
85022;SDS011;75348;43.126;-2.538;2024-03-22T13:05:17;21.88;;;12.60;;
85022;SDS011;75348;43.126;-2.538;2024-03-22T13:07:43;20.27;;;11.18;;
85022;SDS011;75348;43.126;-2.538;2024-03-22T13:10:09;22.58;;;12.63;;
85022;SDS011;75348;43.126;-2.538;2024-03-22T13:12:35;30.13;;;15.82;;
85022;SDS011;75348;43.126;-2.538;2024-03-22T13:15:03;22.15;;;13.23;;
85022;SDS011;75348;43.126;-2.538;2024-03-22T13:17:29;25.35;;;11.73;;
85022;SDS011;75348;43.126;-2.538;2024-03-22T13:19:55;20.80;;;10.98;;
85022;SDS011;75348;43.126;-2.538;2024-03-22T13:22:21;53.75;;;23.60;;
85022;SDS011;75348;43.126;-2.538;2024-03-22T13:24:47;21.23;;;10.70;;
85022;SDS011;75348;43.126;-2.538;2024-03-22T13:27:15;23.20;;;10.73;;
85022;SDS011;75348;43.126;-2.538;2024-03-22T13:29:42;36.13;;;17.73;;
85022;SDS011;75348;43.126;-2.538;2024-03-22T13:32:08;33.83;;;17.60;;
85022;SDS011;75348;43.126;-2.538;2024-03-22T13:34:38;90.93;;;33.08;;
85022;SDS011;75348;43.126;-2.538;2024-03-22T13:37:04;22.63;;;11.25;;
85022;SDS011;75348;43.126;-2.538;2024-03-22T13:39:31;25.50;;;13.68;;
85022;SDS011;75348;43.126;-2.538;2024-03-22T13:41:57;22.50;;;14.00;;
85022;SDS011;75348;43.126;-2.538;2024-03-22T13:44:24;24.08;;;13.45;;
85022;SDS011;75348;43.126;-2.538;2024-03-22T13:46:50;31.08;;;17.30;;
85022;SDS011;75348;43.126;-2.538;2024-03-22T13:49:16;27.15;;;15.07;;
85022;SDS011;75348;43.126;-2.538;2024-03-22T13:51:46;28.42;;;13.85;;
85022;SDS011;75348;43.126;-2.538;2024-03-22T13:54:13;30.80;;;17.05;;
85022;SDS011;75348;43.126;-2.538;2024-03-22T13:56:39;22.70;;;14.02;;
85022;SDS011;75348;43.126;-2.538;2024-03-22T13:59:05;19.83;;;14.02;;
85022;SDS011;75348;43.126;-2.538;2024-03-22T14:01:33;25.90;;;13.65;;
85022;SDS011;75348;43.126;-2.538;2024-03-22T14:04:00;20.27;;;12.50;;
85022;SDS011;75348;43.126;-2.538;2024-03-22T14:06:26;35.28;;;20.00;;